createdAt,value
2023-04-28T00:00:24.048Z,87.243652
2023-04-28T00:01:33.720Z,86.993408
2023-04-28T00:02:43.476Z,86.791992
2023-04-28T00:03:52.163Z,86.932373
2023-04-28T00:05:00.793Z,87.200928
2023-04-28T00:06:10.394Z,87.097168
2023-04-28T00:07:19.115Z,86.791992
2023-04-28T00:08:28.789Z,86.791992
2023-04-28T00:09:38.426Z,86.791992
2023-04-28T00:10:47.065Z,86.791992
2023-04-28T00:11:56.709Z,86.791992
2023-04-28T00:13:05.399Z,86.688232
2023-04-28T00:14:14.176Z,86.584473
2023-04-28T00:15:23.700Z,86.688232
2023-04-28T00:16:33.420Z,86.444092
2023-04-28T00:17:42.202Z,86.279297
2023-04-28T00:18:50.858Z,86.383057
2023-04-28T00:19:59.492Z,86.584473
2023-04-28T00:21:09.249Z,86.688232
2023-04-28T00:22:17.932Z,86.688232
2023-04-28T00:23:26.618Z,86.584473
2023-04-28T00:24:36.363Z,86.480713
2023-04-28T00:25:46.006Z,86.688232
2023-04-28T00:26:55.642Z,86.584473
2023-04-28T00:28:05.330Z,86.791992
2023-04-28T00:29:15.058Z,86.791992
2023-04-28T00:30:22.717Z,86.584473
2023-04-28T00:31:32.412Z,86.895752
2023-04-28T00:32:41.084Z,86.584473
2023-04-28T00:33:49.771Z,86.236572
2023-04-28T00:34:58.415Z,86.138916
2023-04-28T00:36:08.064Z,86.383057
2023-04-28T00:37:17.716Z,86.791992
2023-04-28T00:38:26.402Z,86.688232
2023-04-28T00:39:35.089Z,86.480713
2023-04-28T00:40:44.761Z,86.584473
2023-04-28T00:41:53.409Z,86.584473
2023-04-28T00:43:02.092Z,86.688232
2023-04-28T00:44:09.722Z,86.584473
2023-04-28T00:45:19.394Z,86.688232
2023-04-28T00:46:28.066Z,86.791992
2023-04-28T00:47:36.829Z,86.688232
2023-04-28T00:48:45.485Z,86.993408
2023-04-28T00:49:54.113Z,86.895752
2023-04-28T00:51:03.780Z,87.341309
2023-04-28T00:52:12.517Z,87.304688
2023-04-28T00:53:22.229Z,86.993408
2023-04-28T00:54:30.878Z,86.993408
2023-04-28T00:55:40.534Z,86.993408
2023-04-28T00:56:49.259Z,86.993408
2023-04-28T00:57:56.924Z,87.097168
2023-04-28T00:59:06.629Z,87.097168
2023-04-28T01:00:15.285Z,86.895752
2023-04-28T01:01:23.972Z,86.993408
2023-04-28T01:02:32.733Z,86.993408
2023-04-28T01:03:41.476Z,86.895752
2023-04-28T01:04:50.948Z,86.895752
2023-04-28T01:05:58.589Z,86.688232
2023-04-28T01:07:07.304Z,86.791992
2023-04-28T01:08:16.976Z,86.791992
2023-04-28T01:09:26.630Z,86.791992
2023-04-28T01:10:36.361Z,87.097168
2023-04-28T01:11:45.010Z,86.895752
2023-04-28T01:12:54.740Z,86.547852
2023-04-28T01:14:04.402Z,86.340332
2023-04-28T01:15:14.042Z,86.236572
2023-04-28T01:16:21.769Z,85.931396
2023-04-28T01:17:31.447Z,85.827637
2023-04-28T01:18:40.099Z,85.827637
2023-04-28T01:19:48.775Z,85.931396
2023-04-28T01:20:58.431Z,86.138916
2023-04-28T01:22:07.078Z,86.035156
2023-04-28T01:23:16.801Z,86.138916
2023-04-28T01:24:23.455Z,86.340332
2023-04-28T01:25:31.100Z,86.444092
2023-04-28T01:26:40.768Z,86.444092
2023-04-28T01:27:50.501Z,86.340332
2023-04-28T01:29:00.181Z,86.340332
2023-04-28T01:30:09.825Z,86.340332
2023-04-28T01:31:18.489Z,86.688232
2023-04-28T01:32:28.207Z,86.791992
2023-04-28T01:33:35.851Z,86.688232
2023-04-28T01:34:44.500Z,86.547852
2023-04-28T01:35:54.198Z,86.444092
2023-04-28T01:37:02.850Z,86.547852
2023-04-28T01:38:11.522Z,86.236572
2023-04-28T01:39:20.169Z,86.279297
2023-04-28T01:40:29.826Z,86.444092
2023-04-28T01:41:39.513Z,86.547852
2023-04-28T01:42:49.468Z,86.547852
2023-04-28T01:43:58.150Z,86.444092
2023-04-28T01:45:07.864Z,86.236572
2023-04-28T01:46:17.559Z,85.931396
2023-04-28T01:47:27.214Z,85.827637
2023-04-28T01:48:36.922Z,85.931396
2023-04-28T01:49:45.591Z,85.931396
2023-04-28T01:50:55.267Z,85.931396
2023-04-28T01:52:02.913Z,85.931396
2023-04-28T01:53:12.593Z,85.931396
2023-04-28T01:54:22.328Z,85.687256
2023-04-28T01:55:30.990Z,85.791016
2023-04-28T01:56:39.616Z,85.583496
2023-04-28T01:57:49.320Z,85.479736
2023-04-28T01:58:58.965Z,85.479736
2023-04-28T02:00:08.644Z,85.479736
2023-04-28T02:01:17.328Z,85.723877
2023-04-28T02:02:26.055Z,86.035156
2023-04-28T02:03:35.751Z,86.035156
2023-04-28T02:04:44.420Z,85.791016
2023-04-28T02:05:53.000Z,85.687256
2023-04-28T02:07:01.676Z,85.827637
2023-04-28T02:08:11.349Z,85.931396
2023-04-28T02:09:21.987Z,86.444092
2023-04-28T02:10:29.625Z,86.547852
2023-04-28T02:11:37.257Z,86.791992
2023-04-28T02:12:46.951Z,86.853027
2023-04-28T02:13:56.568Z,86.547852
2023-04-28T02:15:06.244Z,86.547852
2023-04-28T02:16:14.952Z,86.645508
2023-04-28T02:17:23.660Z,86.547852
2023-04-28T02:18:33.326Z,86.199951
2023-04-28T02:19:41.982Z,86.096191
2023-04-28T02:20:51.670Z,85.791016
2023-04-28T02:22:00.338Z,85.583496
2023-04-28T02:23:09.073Z,85.583496
2023-04-28T02:24:17.897Z,85.479736
2023-04-28T02:25:27.393Z,85.235596
2023-04-28T02:26:34.048Z,85.235596
2023-04-28T02:27:42.680Z,85.235596
2023-04-28T02:28:52.360Z,85.03418
2023-04-28T02:30:02.050Z,85.03418
2023-04-28T02:31:11.720Z,84.887695
2023-04-28T02:32:20.338Z,84.790039
2023-04-28T02:33:29.032Z,84.47876
2023-04-28T02:34:38.675Z,84.417725
2023-04-28T02:35:46.329Z,84.7229
2023-04-28T02:36:53.955Z,85.070801
2023-04-28T02:38:03.735Z,85.479736
2023-04-28T02:39:12.411Z,85.888672
2023-04-28T02:40:21.065Z,86.401367
2023-04-28T02:41:30.707Z,86.956787
2023-04-28T02:42:40.362Z,87.774658
2023-04-28T02:43:50.096Z,88.452148
2023-04-28T02:44:57.737Z,88.452148
2023-04-28T02:46:06.390Z,88.244629
2023-04-28T02:47:16.053Z,88.513184
2023-04-28T02:48:25.716Z,88.513184
2023-04-28T02:49:35.435Z,88.616943
2023-04-28T02:50:45.060Z,88.140869
2023-04-28T02:51:53.730Z,88.348389
2023-04-28T02:53:03.394Z,88.800049
2023-04-28T02:54:12.051Z,88.964844
2023-04-28T02:55:20.709Z,89.001465
2023-04-28T02:56:30.353Z,89.51416
2023-04-28T02:57:39.064Z,89.868164
2023-04-28T02:58:46.751Z,90.130615
2023-04-28T02:59:56.401Z,90.234375
2023-04-28T03:01:05.130Z,90.338135
2023-04-28T03:02:14.699Z,90.643311
2023-04-28T03:03:23.484Z,90.539551
2023-04-28T03:04:33.118Z,90.539551
2023-04-28T03:05:42.722Z,90.539551
2023-04-28T03:06:51.393Z,90.789795
2023-04-28T03:08:00.123Z,91.052246
2023-04-28T03:09:09.820Z,90.948486
2023-04-28T03:10:19.459Z,91.052246
2023-04-28T03:11:29.142Z,91.094971
2023-04-28T03:12:36.780Z,91.19873
2023-04-28T03:13:45.463Z,91.156006
2023-04-28T03:14:55.091Z,90.948486
2023-04-28T03:16:03.766Z,90.539551
2023-04-28T03:17:13.408Z,90.539551
2023-04-28T03:18:22.117Z,90.29541
2023-04-28T03:19:31.783Z,90.19165
2023-04-28T03:20:40.549Z,89.984131
2023-04-28T03:21:50.223Z,90.19165
2023-04-28T03:22:59.840Z,89.984131
2023-04-28T03:24:09.704Z,89.984131
2023-04-28T03:25:19.334Z,89.434814
2023-04-28T03:26:27.970Z,89.18457
2023-04-28T03:27:37.654Z,88.775635
2023-04-28T03:28:47.338Z,88.574219
2023-04-28T03:29:57.068Z,88.330078
2023-04-28T03:31:05.720Z,88.201904
2023-04-28T03:32:15.480Z,88.470459
2023-04-28T03:33:24.060Z,88.818359
2023-04-28T03:34:32.813Z,88.922119
2023-04-28T03:35:41.470Z,88.574219
2023-04-28T03:36:50.156Z,88.470459
2023-04-28T03:37:59.837Z,88.574219
2023-04-28T03:39:08.553Z,88.7146
2023-04-28T03:40:18.266Z,89.471436
2023-04-28T03:41:27.961Z,89.678955
2023-04-28T03:42:36.591Z,89.984131
2023-04-28T03:43:45.321Z,89.984131
2023-04-28T03:44:54.100Z,90.19165
2023-04-28T03:46:02.811Z,90.496826
2023-04-28T03:47:12.400Z,90.496826
2023-04-28T03:48:20.126Z,90.704346
2023-04-28T03:49:27.780Z,90.600586
2023-04-28T03:50:37.430Z,90.557861
2023-04-28T03:51:46.087Z,90.252686
2023-04-28T03:52:55.729Z,89.801025
2023-04-28T03:54:04.434Z,89.73999
2023-04-28T03:55:14.061Z,90.148926
2023-04-28T03:56:23.776Z,90.704346
2023-04-28T03:57:32.447Z,90.948486
2023-04-28T03:58:41.104Z,91.052246
2023-04-28T03:59:50.813Z,91.113281
2023-04-28T04:00:59.480Z,91.052246
2023-04-28T04:02:08.175Z,90.905762
2023-04-28T04:03:17.021Z,91.009521
2023-04-28T04:04:26.866Z,91.009521
2023-04-28T04:05:36.168Z,91.009521
2023-04-28T04:06:43.813Z,90.863037
2023-04-28T04:07:52.455Z,90.661621
2023-04-28T04:09:02.176Z,90.661621
2023-04-28T04:10:10.842Z,90.356445
2023-04-28T04:11:19.470Z,89.941406
2023-04-28T04:12:28.121Z,90.002441
2023-04-28T04:13:37.774Z,90.002441
2023-04-28T04:14:47.481Z,89.697266
2023-04-28T04:15:57.139Z,89.941406
2023-04-28T04:17:05.811Z,90.106201
2023-04-28T04:18:15.485Z,89.96582
2023-04-28T04:19:25.158Z,89.758301
2023-04-28T04:20:33.846Z,89.593506
2023-04-28T04:21:43.522Z,89.697266
2023-04-28T04:22:52.301Z,89.453125
2023-04-28T04:23:59.981Z,89.49585
2023-04-28T04:25:09.730Z,89.556885
2023-04-28T04:26:18.447Z,89.349365
2023-04-28T04:27:28.102Z,89.245605
2023-04-28T04:28:37.784Z,89.147949
2023-04-28T04:29:46.627Z,88.94043
2023-04-28T04:30:56.345Z,89.044189
2023-04-28T04:32:04.010Z,88.793945
2023-04-28T04:33:12.682Z,88.94043
2023-04-28T04:34:22.361Z,88.897705
2023-04-28T04:35:32.073Z,88.897705
2023-04-28T04:36:41.737Z,88.85498
2023-04-28T04:37:51.404Z,88.549805
2023-04-28T04:39:00.137Z,88.818359
2023-04-28T04:40:09.802Z,88.916016
2023-04-28T04:41:17.442Z,89.019775
2023-04-28T04:42:27.114Z,89.227295
2023-04-28T04:43:36.746Z,89.123535
2023-04-28T04:44:46.476Z,88.818359
2023-04-28T04:45:56.147Z,89.019775
2023-04-28T04:47:04.808Z,88.818359
2023-04-28T04:48:14.516Z,88.671875
2023-04-28T04:49:23.161Z,88.470459
2023-04-28T04:50:31.875Z,88.323975
2023-04-28T04:51:41.526Z,88.018799
2023-04-28T04:52:51.239Z,87.817383
2023-04-28T04:53:59.886Z,87.408447
2023-04-28T04:55:09.587Z,86.895752
2023-04-28T04:56:18.258Z,87.304688
2023-04-28T04:57:27.925Z,86.956787
2023-04-28T04:58:37.602Z,86.859131
2023-04-28T04:59:46.263Z,86.956787
2023-04-28T05:00:55.925Z,86.547852
2023-04-28T05:02:05.640Z,86.547852
2023-04-28T05:03:14.541Z,86.547852
2023-04-28T05:04:23.331Z,86.450195
2023-04-28T05:05:31.708Z,86.651611
2023-04-28T05:06:41.343Z,86.999512
2023-04-28T05:07:51.013Z,87.060547
2023-04-28T05:08:59.677Z,86.859131
2023-04-28T05:10:09.324Z,86.651611
2023-04-28T05:11:18.992Z,86.450195
2023-04-28T05:12:27.632Z,86.956787
2023-04-28T05:13:36.310Z,86.895752
2023-04-28T05:14:46.087Z,86.590576
2023-04-28T05:15:54.659Z,85.980225
2023-04-28T05:17:04.334Z,85.980225
2023-04-28T05:18:12.071Z,86.181641
2023-04-28T05:19:19.749Z,86.083984
2023-04-28T05:20:29.450Z,85.571289
2023-04-28T05:21:38.111Z,85.571289
2023-04-28T05:22:47.810Z,85.772705
2023-04-28T05:23:57.474Z,85.980225
2023-04-28T05:25:06.182Z,85.980225
2023-04-28T05:26:15.846Z,85.772705
2023-04-28T05:27:25.541Z,86.181641
2023-04-28T05:28:34.186Z,86.083984
2023-04-28T05:29:43.887Z,86.181641
2023-04-28T05:30:53.611Z,85.467529
2023-04-28T05:32:02.267Z,85.467529
2023-04-28T05:33:10.933Z,86.083984
2023-04-28T05:34:19.809Z,85.632324
2023-04-28T05:35:29.398Z,84.918213
2023-04-28T05:36:38.079Z,84.820557
2023-04-28T05:37:46.872Z,84.918213
2023-04-28T05:38:56.536Z,84.820557
2023-04-28T05:40:06.394Z,85.223389
2023-04-28T05:41:16.121Z,85.327148
2023-04-28T05:42:25.794Z,85.876465
2023-04-28T05:43:35.496Z,86.633301
2023-04-28T05:44:45.148Z,87.078857
2023-04-28T05:45:54.021Z,87.384033
2023-04-28T05:47:01.883Z,87.652588
2023-04-28T05:48:11.425Z,87.652588
2023-04-28T05:49:20.117Z,87.548828
2023-04-28T05:50:28.818Z,87.304688
2023-04-28T05:51:37.467Z,87.408447
2023-04-28T05:52:46.100Z,87.164307
2023-04-28T05:53:55.930Z,86.547852
2023-04-28T05:55:04.608Z,86.529541
2023-04-28T05:56:14.342Z,87.347412
2023-04-28T05:57:24.000Z,87.384033
2023-04-28T05:58:33.673Z,87.896729
2023-04-28T05:59:43.341Z,87.854004
2023-04-28T06:00:52.067Z,87.347412
2023-04-28T06:02:00.835Z,87.347412
2023-04-28T06:03:10.568Z,87.139893
2023-04-28T06:04:20.376Z,86.938477
2023-04-28T06:05:28.953Z,87.139893
2023-04-28T06:06:38.517Z,87.591553
2023-04-28T06:07:50.030Z,87.548828
2023-04-28T06:08:58.785Z,87.408447
2023-04-28T06:10:08.438Z,86.694336
2023-04-28T06:11:18.115Z,86.590576
2023-04-28T06:12:28.768Z,86.730957
2023-04-28T06:13:36.421Z,87.408447
2023-04-28T06:14:44.106Z,86.895752
2023-04-28T06:15:52.846Z,86.999512
2023-04-28T06:17:00.440Z,86.486816
2023-04-28T06:18:09.160Z,86.425781
2023-04-28T06:19:18.878Z,86.981201
2023-04-28T06:20:27.513Z,87.182617
2023-04-28T06:21:35.144Z,86.981201
2023-04-28T06:22:44.827Z,87.042236
2023-04-28T06:23:53.606Z,86.834717
2023-04-28T06:25:03.264Z,86.633301
2023-04-28T06:26:11.977Z,86.730957
2023-04-28T06:27:22.613Z,86.633301
2023-04-28T06:28:32.277Z,86.590576
2023-04-28T06:29:39.937Z,86.083984
2023-04-28T06:30:48.614Z,86.38916
2023-04-28T06:31:57.293Z,86.328125
2023-04-28T06:33:06.029Z,86.938477
2023-04-28T06:34:14.896Z,87.445068
2023-04-28T06:35:24.491Z,87.548828
2023-04-28T06:36:33.201Z,87.854004
2023-04-28T06:37:42.857Z,87.817383
2023-04-28T06:38:51.592Z,87.609863
2023-04-28T06:40:00.196Z,87.609863
2023-04-28T06:41:09.863Z,87.854004
2023-04-28T06:42:18.637Z,87.915039
2023-04-28T06:43:27.288Z,87.915039
2023-04-28T06:44:36.499Z,88.018799
2023-04-28T06:45:44.654Z,88.220215
2023-04-28T06:46:54.410Z,88.427734
2023-04-28T06:48:03.068Z,88.427734
2023-04-28T06:49:10.854Z,88.62915
2023-04-28T06:50:20.430Z,88.934326
2023-04-28T06:51:30.145Z,88.83667
2023-04-28T06:52:40.046Z,89.343262
2023-04-28T06:53:49.586Z,89.245605
2023-04-28T06:54:59.261Z,89.447021
2023-04-28T06:56:11.151Z,89.099121
2023-04-28T06:57:18.689Z,88.85498
2023-04-28T06:58:27.392Z,88.244629
2023-04-28T06:59:37.085Z,88.037109
2023-04-28T07:00:44.896Z,88.098145
2023-04-28T07:01:54.473Z,87.896729
2023-04-28T07:03:04.300Z,87.652588
2023-04-28T07:04:14.006Z,87.548828
2023-04-28T07:05:23.466Z,86.999512
2023-04-28T07:06:32.210Z,86.694336
2023-04-28T07:07:42.059Z,86.798096
2023-04-28T07:08:51.522Z,86.755371
2023-04-28T07:10:00.818Z,86.450195
2023-04-28T07:11:10.369Z,85.980225
2023-04-28T07:12:20.056Z,86.346436
2023-04-28T07:13:27.671Z,86.590576
2023-04-28T07:14:37.329Z,86.694336
2023-04-28T07:15:45.041Z,86.651611
2023-04-28T07:16:52.895Z,86.49292
2023-04-28T07:18:02.520Z,86.895752
2023-04-28T07:19:12.242Z,87.060547
2023-04-28T07:20:21.960Z,86.450195
2023-04-28T07:21:32.457Z,86.187744
2023-04-28T07:22:41.169Z,86.346436
2023-04-28T07:23:50.860Z,86.14502
2023-04-28T07:24:59.516Z,86.102295
2023-04-28T07:26:07.250Z,85.736084
2023-04-28T07:27:17.962Z,86.004639
2023-04-28T07:28:27.651Z,85.656738
2023-04-28T07:29:36.467Z,85.046387
2023-04-28T07:30:45.139Z,85.253906
2023-04-28T07:31:54.877Z,85.186768
2023-04-28T07:33:04.589Z,84.94873
2023-04-28T07:34:14.537Z,84.94873
2023-04-28T07:35:21.935Z,84.844971
2023-04-28T07:36:31.577Z,84.58252
2023-04-28T07:37:41.295Z,84.783936
2023-04-28T07:38:50.993Z,84.783936
2023-04-28T07:40:00.632Z,84.741211
2023-04-28T07:41:11.131Z,83.929443
2023-04-28T07:42:19.967Z,84.130859
2023-04-28T07:43:29.620Z,84.033203
2023-04-28T07:44:38.283Z,83.587646
2023-04-28T07:45:48.110Z,83.929443
2023-04-28T07:46:56.745Z,83.825684
2023-04-28T07:48:06.552Z,83.380127
2023-04-28T07:49:16.254Z,83.178711
2023-04-28T07:50:24.964Z,83.282471
2023-04-28T07:51:34.636Z,82.873535
2023-04-28T07:52:44.364Z,83.013916
2023-04-28T07:53:54.132Z,83.868408
2023-04-28T07:55:03.795Z,84.094238
2023-04-28T07:56:13.461Z,83.178711
2023-04-28T07:57:23.161Z,83.319092
2023-04-28T07:58:31.839Z,83.892822
2023-04-28T07:59:40.473Z,83.648682
2023-04-28T08:00:50.144Z,83.685303
2023-04-28T08:01:59.840Z,83.685303
2023-04-28T08:03:08.661Z,83.03833
2023-04-28T08:04:18.479Z,82.940674
2023-04-28T08:05:27.880Z,83.239746
2023-04-28T08:06:37.477Z,83.03833
2023-04-28T08:07:46.163Z,83.282471
2023-04-28T08:08:55.857Z,83.544922
2023-04-28T08:10:03.493Z,83.239746
2023-04-28T08:11:12.181Z,82.836914
2023-04-28T08:12:21.944Z,83.14209
2023-04-28T08:13:30.599Z,82.733154
2023-04-28T08:14:39.261Z,82.226562
2023-04-28T08:15:48.971Z,82.672119
2023-04-28T08:16:57.626Z,83.447266
2023-04-28T08:18:07.383Z,83.544922
2023-04-28T08:19:15.043Z,83.282471
2023-04-28T08:20:24.981Z,84.155273
2023-04-28T08:21:34.446Z,84.356689
2023-04-28T08:22:44.116Z,83.850098
2023-04-28T08:23:52.830Z,84.356689
2023-04-28T08:25:01.512Z,83.752441
2023-04-28T08:26:10.150Z,83.990479
2023-04-28T08:27:19.893Z,84.802246
2023-04-28T08:28:27.562Z,85.778809
2023-04-28T08:29:36.284Z,85.070801
2023-04-28T08:30:45.971Z,85.473633
2023-04-28T08:31:54.628Z,85.620117
2023-04-28T08:33:07.277Z,86.187744
2023-04-28T08:34:16.596Z,85.314941
2023-04-28T08:35:24.691Z,86.022949
2023-04-28T08:36:34.502Z,86.26709
2023-04-28T08:37:44.212Z,87.585449
2023-04-28T08:38:52.897Z,87.890625
2023-04-28T08:40:02.606Z,87.890625
2023-04-28T08:41:11.297Z,87.628174
2023-04-28T08:42:21.006Z,88.647461
2023-04-28T08:43:30.659Z,88.342285
2023-04-28T08:44:39.378Z,88.439941
2023-04-28T08:45:49.001Z,88.238525
2023-04-28T08:46:56.753Z,88.439941
2023-04-28T08:48:05.409Z,88.543701
2023-04-28T08:49:15.068Z,88.38501
2023-04-28T08:50:23.708Z,89.257812
2023-04-28T08:51:33.368Z,88.787842
2023-04-28T08:52:44.101Z,88.745117
2023-04-28T08:55:03.340Z,88.952637
2023-04-28T08:56:13.053Z,88.647461
2023-04-28T08:57:21.744Z,88.342285
2023-04-28T08:58:31.421Z,88.848877
2023-04-28T08:59:41.064Z,88.848877
2023-04-28T09:00:49.746Z,88.806152
2023-04-28T09:01:59.517Z,88.708496
2023-04-28T09:03:07.239Z,88.604736
2023-04-28T09:04:17.014Z,88.604736
2023-04-28T09:05:26.891Z,88.909912
2023-04-28T09:06:36.171Z,88.909912
2023-04-28T09:07:45.936Z,89.276123
2023-04-28T09:08:55.647Z,88.867188
2023-04-28T09:10:04.298Z,88.867188
2023-04-28T09:11:13.954Z,88.806152
2023-04-28T09:12:21.689Z,88.909912
2023-04-28T09:13:31.317Z,89.068604
2023-04-28T09:14:40.973Z,88.665771
2023-04-28T09:15:49.662Z,88.562012
2023-04-28T09:16:58.330Z,88.500977
2023-04-28T09:18:07.065Z,88.604736
2023-04-28T09:19:15.648Z,88.708496
2023-04-28T09:20:25.327Z,88.708496
2023-04-28T09:21:33.994Z,88.909912
2023-04-28T09:22:43.685Z,89.416504
2023-04-28T09:23:53.306Z,89.215088
2023-04-28T09:25:02.019Z,89.312744
2023-04-28T09:26:10.685Z,89.111328
2023-04-28T09:27:19.369Z,89.111328
2023-04-28T09:28:29.139Z,89.154053
2023-04-28T09:29:38.695Z,89.416504
2023-04-28T09:30:46.346Z,88.647461
2023-04-28T09:31:56.077Z,89.562988
2023-04-28T09:33:05.822Z,89.868164
2023-04-28T09:34:16.627Z,90.17334
2023-04-28T09:35:25.108Z,90.783691
2023-04-28T09:36:33.785Z,90.374756
2023-04-28T09:37:43.435Z,90.985107
2023-04-28T09:38:53.876Z,90.881348
2023-04-28T09:40:02.826Z,91.088867
2023-04-28T09:41:10.516Z,90.679932
2023-04-28T09:42:20.288Z,91.247559
2023-04-28T09:43:28.958Z,91.003418
2023-04-28T09:44:37.630Z,90.881348
2023-04-28T09:45:47.312Z,91.088867
2023-04-28T09:46:56.004Z,91.693115
2023-04-28T09:48:05.733Z,92.144775
2023-04-28T09:49:14.378Z,92.901611
2023-04-28T09:50:22.036Z,93.615723
2023-04-28T09:51:31.692Z,93.713379
2023-04-28T09:52:40.378Z,94.018555
2023-04-28T09:53:49.125Z,94.226074
2023-04-28T09:54:57.770Z,94.628906
2023-04-28T09:56:06.458Z,94.42749
2023-04-28T09:57:16.147Z,94.586182
2023-04-28T09:58:25.877Z,94.482422
2023-04-28T09:59:34.586Z,94.732666
2023-04-28T10:00:44.252Z,94.732666
2023-04-28T10:01:53.972Z,94.628906
2023-04-28T10:03:03.639Z,94.836426
2023-04-28T10:04:12.395Z,95.037842
2023-04-28T10:05:22.292Z,95.080566
2023-04-28T10:06:31.591Z,95.141602
2023-04-28T10:07:39.506Z,95.141602
2023-04-28T10:08:48.039Z,94.891357
2023-04-28T10:09:57.734Z,94.787598
2023-04-28T10:11:07.433Z,94.732666
2023-04-28T10:12:17.112Z,94.628906
2023-04-28T10:13:26.833Z,94.586182
2023-04-28T10:14:36.569Z,94.787598
2023-04-28T10:15:45.556Z,94.732666
2023-04-28T10:16:54.931Z,94.732666
2023-04-28T10:18:03.635Z,95.196533
2023-04-28T10:19:13.263Z,95.092773
2023-04-28T10:20:21.980Z,94.891357
2023-04-28T10:21:31.711Z,94.934082
2023-04-28T10:22:40.426Z,95.092773
2023-04-28T10:23:50.076Z,94.836426
2023-04-28T10:24:59.748Z,94.891357
2023-04-28T10:26:07.432Z,95.037842
2023-04-28T10:27:17.136Z,95.446777
2023-04-28T10:28:26.815Z,95.794678
2023-04-28T10:29:35.490Z,96.057129
2023-04-28T10:30:45.149Z,95.751953
2023-04-28T10:31:53.873Z,96.154785
2023-04-28T10:33:02.614Z,96.258545
2023-04-28T10:34:12.305Z,95.910645
2023-04-28T10:35:20.977Z,95.556641
2023-04-28T10:36:36.182Z,95.050049
2023-04-28T10:37:41.417Z,94.543457
2023-04-28T10:38:51.109Z,94.641113
2023-04-28T10:40:00.790Z,94.891357
2023-04-28T10:41:11.456Z,95.196533
2023-04-28T10:42:21.116Z,95.501709
2023-04-28T10:43:31.103Z,94.848633
2023-04-28T10:44:39.493Z,94.848633
2023-04-28T10:45:47.182Z,94.946289
2023-04-28T10:46:58.009Z,94.995117
2023-04-28T10:48:06.734Z,95.556641
2023-04-28T10:49:15.494Z,95.153809
2023-04-28T10:50:38.354Z,95.153809
2023-04-28T10:51:35.822Z,95.300293
2023-04-28T10:52:43.464Z,95.153809
2023-04-28T10:53:53.245Z,95.153809
2023-04-28T10:55:07.018Z,94.891357
2023-04-28T10:56:11.532Z,95.355225
2023-04-28T10:57:21.261Z,95.251465
2023-04-28T10:58:30.892Z,94.744873
2023-04-28T10:59:40.566Z,93.731689
2023-04-28T11:00:50.214Z,94.134521
2023-04-28T11:01:57.925Z,94.134521
2023-04-28T11:03:07.617Z,94.281006
2023-04-28T11:04:16.583Z,95.092773
2023-04-28T11:05:24.951Z,94.439697
2023-04-28T11:06:34.692Z,93.97583
2023-04-28T11:07:44.343Z,94.787598
2023-04-28T11:08:54.032Z,94.848633
2023-04-28T11:10:02.720Z,94.342041
2023-04-28T11:11:11.362Z,94.641113
2023-04-28T11:12:21.043Z,94.342041
2023-04-28T11:13:29.957Z,94.787598
2023-04-28T11:14:39.388Z,95.092773
2023-04-28T11:15:49.043Z,94.689941
2023-04-28T11:16:57.726Z,95.196533
2023-04-28T11:18:07.493Z,95.196533
2023-04-28T11:19:16.101Z,95.806885
2023-04-28T11:20:23.835Z,95.501709
2023-04-28T11:21:33.454Z,95.703125
2023-04-28T11:22:43.150Z,95.153809
2023-04-28T11:23:51.817Z,95.397949
2023-04-28T11:25:00.460Z,95.343018
2023-04-28T11:26:09.104Z,95.703125
2023-04-28T11:27:18.746Z,95.196533
2023-04-28T11:28:26.401Z,95.806885
2023-04-28T11:29:35.147Z,96.008301
2023-04-28T11:30:44.723Z,95.300293
2023-04-28T11:31:53.405Z,95.355225
2023-04-28T11:33:02.051Z,95.458984
2023-04-28T11:34:10.694Z,95.556641
2023-04-28T11:35:20.351Z,94.946289
2023-04-28T11:36:30.123Z,95.050049
2023-04-28T11:37:38.741Z,94.946289
2023-04-28T11:38:47.414Z,94.848633
2023-04-28T11:39:57.121Z,95.050049
2023-04-28T11:41:05.767Z,95.050049
2023-04-28T11:42:14.413Z,95.007324
2023-04-28T11:43:23.340Z,94.238281
2023-04-28T11:44:32.727Z,94.702148
2023-04-28T11:45:42.405Z,94.659424
2023-04-28T11:46:51.217Z,93.640137
2023-04-28T11:47:58.779Z,94.207764
2023-04-28T11:49:08.381Z,94.40918
2023-04-28T11:50:18.081Z,94.250488
2023-04-28T11:51:26.738Z,94.250488
2023-04-28T11:52:35.430Z,94.250488
2023-04-28T11:53:44.073Z,94.354248
2023-04-28T11:54:52.731Z,94.354248
2023-04-28T11:56:01.393Z,93.798828
2023-04-28T11:57:10.107Z,94.061279
2023-04-28T11:58:18.740Z,93.859863
2023-04-28T11:59:27.564Z,92.987061
2023-04-28T12:00:36.142Z,94.30542
2023-04-28T12:01:44.834Z,94.165039
2023-04-28T12:02:54.589Z,93.554688
2023-04-28T12:04:04.336Z,93.292236
2023-04-28T12:05:12.851Z,94.104004
2023-04-28T12:06:20.462Z,94.049072
2023-04-28T12:07:30.147Z,94.30542
2023-04-28T12:08:39.829Z,94.207764
2023-04-28T12:09:49.505Z,94.104004
2023-04-28T12:10:59.168Z,93.798828
2023-04-28T12:12:08.824Z,93.597412
2023-04-28T12:13:18.489Z,93.640137
2023-04-28T12:14:27.160Z,94.702148
2023-04-28T12:15:34.913Z,95.007324
2023-04-28T12:16:44.582Z,95.367432
2023-04-28T12:17:54.211Z,94.818115
2023-04-28T12:19:03.878Z,94.958496
2023-04-28T12:20:12.558Z,94.75708
2023-04-28T12:21:21.307Z,94.500732
2023-04-28T12:22:30.954Z,95.3125
2023-04-28T12:23:38.602Z,95.367432
2023-04-28T12:24:46.315Z,94.958496
2023-04-28T12:25:55.953Z,94.958496
2023-04-28T12:27:05.662Z,94.915771
2023-04-28T12:28:14.390Z,95.019531
2023-04-28T12:29:23.103Z,95.263672
2023-04-28T12:30:31.776Z,95.117188
2023-04-28T12:31:41.477Z,94.818115
2023-04-28T12:32:50.259Z,94.915771
2023-04-28T12:33:59.874Z,94.464111
2023-04-28T12:35:09.574Z,94.769287
2023-04-28T12:36:19.256Z,94.525146
2023-04-28T12:37:28.907Z,94.018555
2023-04-28T12:38:37.559Z,93.811035
2023-04-28T12:39:46.507Z,94.219971
2023-04-28T12:40:55.916Z,93.511963
2023-04-28T12:42:04.626Z,93.609619
2023-04-28T12:43:13.332Z,94.219971
2023-04-28T12:44:23.024Z,93.87207
2023-04-28T12:45:32.834Z,93.87207
2023-04-28T12:46:41.523Z,93.969727
2023-04-28T12:47:51.203Z,93.322754
2023-04-28T12:48:58.847Z,93.365479
2023-04-28T12:50:07.676Z,93.261719
2023-04-28T12:51:17.553Z,93.164062
2023-04-28T12:52:26.351Z,93.164062
2023-04-28T12:53:35.008Z,93.566895
2023-04-28T12:54:43.698Z,93.322754
2023-04-28T12:55:53.457Z,93.017578
2023-04-28T12:57:03.232Z,93.017578
2023-04-28T12:58:11.834Z,92.816162
2023-04-28T12:59:21.517Z,92.407227
2023-04-28T13:00:31.199Z,93.218994
2023-04-28T13:01:39.897Z,93.115234
2023-04-28T13:02:48.548Z,93.322754
2023-04-28T13:03:57.465Z,93.42041
2023-04-28T13:05:06.198Z,92.871094
2023-04-28T13:06:15.816Z,92.712402
2023-04-28T13:07:22.457Z,93.060303
2023-04-28T13:08:31.181Z,93.42041
2023-04-28T13:09:40.820Z,93.42041
2023-04-28T13:10:50.486Z,93.017578